sensor_id;sensor_type;location;lat;lon;timestamp;P1;durP1;ratioP1;P2;durP2;ratioP2
54235;SDS011;40151;43.606;1.472;2023-08-01T00:01:01;4.00;;;2.53;;
54235;SDS011;40151;43.606;1.472;2023-08-01T00:03:27;4.50;;;2.50;;
54235;SDS011;40151;43.606;1.472;2023-08-01T00:05:53;4.28;;;2.65;;
54235;SDS011;40151;43.606;1.472;2023-08-01T00:08:20;4.32;;;2.60;;
54235;SDS011;40151;43.606;1.472;2023-08-01T00:10:45;4.30;;;2.42;;
54235;SDS011;40151;43.606;1.472;2023-08-01T00:13:11;5.68;;;2.90;;
54235;SDS011;40151;43.606;1.472;2023-08-01T00:15:36;4.72;;;2.80;;
54235;SDS011;40151;43.606;1.472;2023-08-01T00:18:02;5.75;;;3.00;;
54235;SDS011;40151;43.606;1.472;2023-08-01T00:20:27;5.00;;;2.25;;
54235;SDS011;40151;43.606;1.472;2023-08-01T00:22:52;5.13;;;2.58;;
54235;SDS011;40151;43.606;1.472;2023-08-01T00:25:18;4.00;;;2.50;;
54235;SDS011;40151;43.606;1.472;2023-08-01T00:27:43;5.03;;;2.63;;
54235;SDS011;40151;43.606;1.472;2023-08-01T00:30:09;4.40;;;2.22;;
54235;SDS011;40151;43.606;1.472;2023-08-01T00:32:35;4.50;;;2.58;;
54235;SDS011;40151;43.606;1.472;2023-08-01T00:35:02;4.55;;;2.63;;
54235;SDS011;40151;43.606;1.472;2023-08-01T00:37:28;3.55;;;2.40;;
54235;SDS011;40151;43.606;1.472;2023-08-01T00:39:53;3.92;;;2.30;;
54235;SDS011;40151;43.606;1.472;2023-08-01T00:42:18;6.38;;;2.60;;
54235;SDS011;40151;43.606;1.472;2023-08-01T00:44:44;4.03;;;2.40;;
54235;SDS011;40151;43.606;1.472;2023-08-01T00:47:10;4.55;;;2.45;;
54235;SDS011;40151;43.606;1.472;2023-08-01T00:49:35;4.50;;;2.38;;
54235;SDS011;40151;43.606;1.472;2023-08-01T00:52:01;4.38;;;2.38;;
54235;SDS011;40151;43.606;1.472;2023-08-01T00:54:27;4.70;;;2.50;;
54235;SDS011;40151;43.606;1.472;2023-08-01T00:56:53;3.63;;;2.22;;
54235;SDS011;40151;43.606;1.472;2023-08-01T00:59:19;3.92;;;2.13;;
54235;SDS011;40151;43.606;1.472;2023-08-01T01:01:44;3.72;;;2.20;;
54235;SDS011;40151;43.606;1.472;2023-08-01T01:04:10;4.57;;;2.40;;
54235;SDS011;40151;43.606;1.472;2023-08-01T01:06:45;4.22;;;2.63;;
54235;SDS011;40151;43.606;1.472;2023-08-01T01:09:16;4.10;;;2.38;;
54235;SDS011;40151;43.606;1.472;2023-08-01T01:11:43;4.13;;;2.20;;
54235;SDS011;40151;43.606;1.472;2023-08-01T01:14:09;3.42;;;2.10;;
54235;SDS011;40151;43.606;1.472;2023-08-01T01:16:35;4.43;;;2.35;;
54235;SDS011;40151;43.606;1.472;2023-08-01T01:19:00;3.90;;;2.42;;
54235;SDS011;40151;43.606;1.472;2023-08-01T01:21:25;3.85;;;2.00;;
54235;SDS011;40151;43.606;1.472;2023-08-01T01:23:51;5.05;;;2.50;;
54235;SDS011;40151;43.606;1.472;2023-08-01T01:26:17;4.75;;;2.75;;
54235;SDS011;40151;43.606;1.472;2023-08-01T01:28:47;3.97;;;2.22;;
54235;SDS011;40151;43.606;1.472;2023-08-01T01:31:14;3.83;;;2.38;;
54235;SDS011;40151;43.606;1.472;2023-08-01T01:33:40;3.40;;;2.00;;
54235;SDS011;40151;43.606;1.472;2023-08-01T01:36:06;4.43;;;2.42;;
54235;SDS011;40151;43.606;1.472;2023-08-01T01:38:32;3.95;;;2.70;;
54235;SDS011;40151;43.606;1.472;2023-08-01T01:40:57;5.32;;;2.85;;
54235;SDS011;40151;43.606;1.472;2023-08-01T01:43:23;4.63;;;2.40;;
54235;SDS011;40151;43.606;1.472;2023-08-01T01:45:48;4.70;;;2.40;;
54235;SDS011;40151;43.606;1.472;2023-08-01T01:48:13;4.50;;;2.20;;
54235;SDS011;40151;43.606;1.472;2023-08-01T01:50:39;3.55;;;1.92;;
54235;SDS011;40151;43.606;1.472;2023-08-01T01:53:04;4.13;;;2.10;;
54235;SDS011;40151;43.606;1.472;2023-08-01T01:55:30;3.65;;;2.17;;
54235;SDS011;40151;43.606;1.472;2023-08-01T01:57:55;4.85;;;2.70;;
54235;SDS011;40151;43.606;1.472;2023-08-01T02:00:20;4.60;;;2.20;;
54235;SDS011;40151;43.606;1.472;2023-08-01T02:02:46;3.78;;;2.10;;
54235;SDS011;40151;43.606;1.472;2023-08-01T02:05:11;4.10;;;2.45;;
54235;SDS011;40151;43.606;1.472;2023-08-01T02:07:36;4.63;;;2.60;;
54235;SDS011;40151;43.606;1.472;2023-08-01T02:10:02;4.15;;;2.30;;
54235;SDS011;40151;43.606;1.472;2023-08-01T02:12:28;3.72;;;2.10;;
54235;SDS011;40151;43.606;1.472;2023-08-01T02:14:57;3.70;;;2.55;;
54235;SDS011;40151;43.606;1.472;2023-08-01T02:17:23;4.32;;;2.53;;
54235;SDS011;40151;43.606;1.472;2023-08-01T02:19:49;4.40;;;2.50;;
54235;SDS011;40151;43.606;1.472;2023-08-01T02:22:14;4.18;;;2.55;;
54235;SDS011;40151;43.606;1.472;2023-08-01T02:24:40;5.43;;;2.78;;
54235;SDS011;40151;43.606;1.472;2023-08-01T02:27:05;4.28;;;2.55;;
54235;SDS011;40151;43.606;1.472;2023-08-01T02:29:31;4.47;;;2.50;;
54235;SDS011;40151;43.606;1.472;2023-08-01T02:31:56;3.78;;;2.25;;
54235;SDS011;40151;43.606;1.472;2023-08-01T02:34:21;4.38;;;2.40;;
54235;SDS011;40151;43.606;1.472;2023-08-01T02:36:47;3.83;;;2.40;;
54235;SDS011;40151;43.606;1.472;2023-08-01T02:39:12;4.15;;;2.60;;
54235;SDS011;40151;43.606;1.472;2023-08-01T02:41:38;4.25;;;2.42;;
54235;SDS011;40151;43.606;1.472;2023-08-01T02:44:03;3.60;;;2.53;;
54235;SDS011;40151;43.606;1.472;2023-08-01T02:46:29;4.22;;;2.70;;
54235;SDS011;40151;43.606;1.472;2023-08-01T02:48:54;3.83;;;2.42;;
54235;SDS011;40151;43.606;1.472;2023-08-01T02:51:20;4.57;;;2.45;;
54235;SDS011;40151;43.606;1.472;2023-08-01T02:53:46;4.38;;;2.60;;
54235;SDS011;40151;43.606;1.472;2023-08-01T02:56:11;4.53;;;2.58;;
54235;SDS011;40151;43.606;1.472;2023-08-01T02:58:36;4.95;;;2.90;;
54235;SDS011;40151;43.606;1.472;2023-08-01T03:01:08;4.88;;;2.85;;
54235;SDS011;40151;43.606;1.472;2023-08-01T03:03:35;4.28;;;2.67;;
54235;SDS011;40151;43.606;1.472;2023-08-01T03:06:01;5.25;;;2.50;;
54235;SDS011;40151;43.606;1.472;2023-08-01T03:08:27;4.28;;;2.78;;
54235;SDS011;40151;43.606;1.472;2023-08-01T03:10:53;4.55;;;2.83;;
54235;SDS011;40151;43.606;1.472;2023-08-01T03:13:19;4.20;;;2.15;;
54235;SDS011;40151;43.606;1.472;2023-08-01T03:15:45;5.15;;;2.80;;
54235;SDS011;40151;43.606;1.472;2023-08-01T03:18:10;4.03;;;2.70;;
54235;SDS011;40151;43.606;1.472;2023-08-01T03:20:35;4.13;;;2.70;;
54235;SDS011;40151;43.606;1.472;2023-08-01T03:23:01;5.32;;;3.13;;
54235;SDS011;40151;43.606;1.472;2023-08-01T03:25:27;4.28;;;2.90;;
54235;SDS011;40151;43.606;1.472;2023-08-01T03:27:52;4.18;;;2.70;;
54235;SDS011;40151;43.606;1.472;2023-08-01T03:30:19;4.95;;;2.90;;
54235;SDS011;40151;43.606;1.472;2023-08-01T03:32:45;3.95;;;2.53;;
54235;SDS011;40151;43.606;1.472;2023-08-01T03:35:11;4.47;;;2.45;;
54235;SDS011;40151;43.606;1.472;2023-08-01T03:37:39;4.57;;;2.97;;
54235;SDS011;40151;43.606;1.472;2023-08-01T03:40:05;3.65;;;2.63;;
54235;SDS011;40151;43.606;1.472;2023-08-01T03:42:33;5.45;;;2.70;;
54235;SDS011;40151;43.606;1.472;2023-08-01T03:44:59;4.82;;;2.50;;
54235;SDS011;40151;43.606;1.472;2023-08-01T03:47:24;3.97;;;2.45;;
54235;SDS011;40151;43.606;1.472;2023-08-01T03:49:50;3.90;;;2.60;;
54235;SDS011;40151;43.606;1.472;2023-08-01T03:52:15;4.65;;;2.72;;
54235;SDS011;40151;43.606;1.472;2023-08-01T03:54:41;5.32;;;3.05;;
54235;SDS011;40151;43.606;1.472;2023-08-01T03:57:06;4.15;;;2.45;;
54235;SDS011;40151;43.606;1.472;2023-08-01T03:59:31;4.65;;;2.80;;
54235;SDS011;40151;43.606;1.472;2023-08-01T04:01:57;3.78;;;2.30;;
54235;SDS011;40151;43.606;1.472;2023-08-01T04:04:22;4.65;;;2.42;;
54235;SDS011;40151;43.606;1.472;2023-08-01T04:06:48;4.85;;;2.80;;
54235;SDS011;40151;43.606;1.472;2023-08-01T04:09:13;4.18;;;2.88;;
54235;SDS011;40151;43.606;1.472;2023-08-01T04:11:39;3.75;;;2.47;;
54235;SDS011;40151;43.606;1.472;2023-08-01T04:14:04;4.97;;;2.90;;
54235;SDS011;40151;43.606;1.472;2023-08-01T04:16:30;4.78;;;2.97;;
54235;SDS011;40151;43.606;1.472;2023-08-01T04:18:55;3.85;;;2.50;;
54235;SDS011;40151;43.606;1.472;2023-08-01T04:21:21;5.18;;;3.13;;
54235;SDS011;40151;43.606;1.472;2023-08-01T04:23:46;4.22;;;2.60;;
54235;SDS011;40151;43.606;1.472;2023-08-01T04:26:12;4.20;;;2.58;;
54235;SDS011;40151;43.606;1.472;2023-08-01T04:28:37;4.07;;;2.70;;
54235;SDS011;40151;43.606;1.472;2023-08-01T04:31:03;5.10;;;2.88;;
54235;SDS011;40151;43.606;1.472;2023-08-01T04:33:28;5.18;;;2.80;;
54235;SDS011;40151;43.606;1.472;2023-08-01T04:35:54;4.82;;;3.08;;
54235;SDS011;40151;43.606;1.472;2023-08-01T04:38:20;4.95;;;2.80;;
54235;SDS011;40151;43.606;1.472;2023-08-01T04:40:45;4.82;;;2.90;;
54235;SDS011;40151;43.606;1.472;2023-08-01T04:43:11;4.03;;;2.85;;
54235;SDS011;40151;43.606;1.472;2023-08-01T04:45:37;5.15;;;3.08;;
54235;SDS011;40151;43.606;1.472;2023-08-01T04:48:02;4.55;;;2.92;;
54235;SDS011;40151;43.606;1.472;2023-08-01T04:50:28;4.88;;;2.90;;
54235;SDS011;40151;43.606;1.472;2023-08-01T04:52:53;4.43;;;2.75;;
54235;SDS011;40151;43.606;1.472;2023-08-01T04:55:19;4.97;;;2.95;;
54235;SDS011;40151;43.606;1.472;2023-08-01T04:57:44;4.55;;;3.00;;
54235;SDS011;40151;43.606;1.472;2023-08-01T05:00:10;4.93;;;2.63;;
54235;SDS011;40151;43.606;1.472;2023-08-01T05:02:36;4.75;;;3.08;;
54235;SDS011;40151;43.606;1.472;2023-08-01T05:05:01;5.30;;;3.30;;
54235;SDS011;40151;43.606;1.472;2023-08-01T05:07:27;4.55;;;2.72;;
54235;SDS011;40151;43.606;1.472;2023-08-01T05:09:52;4.55;;;2.92;;
54235;SDS011;40151;43.606;1.472;2023-08-01T05:12:18;5.22;;;2.70;;
54235;SDS011;40151;43.606;1.472;2023-08-01T05:14:43;4.28;;;2.70;;
54235;SDS011;40151;43.606;1.472;2023-08-01T05:17:09;5.53;;;3.38;;
54235;SDS011;40151;43.606;1.472;2023-08-01T05:19:34;5.32;;;2.80;;
54235;SDS011;40151;43.606;1.472;2023-08-01T05:22:00;5.30;;;2.90;;
54235;SDS011;40151;43.606;1.472;2023-08-01T05:24:25;5.03;;;2.90;;
54235;SDS011;40151;43.606;1.472;2023-08-01T05:26:50;4.00;;;2.60;;
54235;SDS011;40151;43.606;1.472;2023-08-01T05:29:16;4.80;;;2.50;;
54235;SDS011;40151;43.606;1.472;2023-08-01T05:31:41;4.03;;;2.50;;
54235;SDS011;40151;43.606;1.472;2023-08-01T05:34:06;4.85;;;2.70;;
54235;SDS011;40151;43.606;1.472;2023-08-01T05:36:32;4.38;;;3.05;;
54235;SDS011;40151;43.606;1.472;2023-08-01T05:38:57;5.45;;;2.97;;
54235;SDS011;40151;43.606;1.472;2023-08-01T05:41:23;4.78;;;3.05;;
54235;SDS011;40151;43.606;1.472;2023-08-01T05:43:48;5.28;;;2.95;;
54235;SDS011;40151;43.606;1.472;2023-08-01T05:46:14;5.28;;;3.50;;
54235;SDS011;40151;43.606;1.472;2023-08-01T05:48:40;4.28;;;2.83;;
54235;SDS011;40151;43.606;1.472;2023-08-01T05:51:06;5.22;;;3.20;;
54235;SDS011;40151;43.606;1.472;2023-08-01T05:53:32;5.25;;;2.80;;
54235;SDS011;40151;43.606;1.472;2023-08-01T05:55:57;5.63;;;3.65;;
54235;SDS011;40151;43.606;1.472;2023-08-01T05:58:23;4.30;;;3.00;;
54235;SDS011;40151;43.606;1.472;2023-08-01T06:00:48;3.85;;;2.33;;
54235;SDS011;40151;43.606;1.472;2023-08-01T06:03:14;4.47;;;2.65;;
54235;SDS011;40151;43.606;1.472;2023-08-01T06:05:39;4.65;;;3.00;;
54235;SDS011;40151;43.606;1.472;2023-08-01T06:08:08;4.18;;;2.85;;
54235;SDS011;40151;43.606;1.472;2023-08-01T06:10:34;6.55;;;3.40;;
54235;SDS011;40151;43.606;1.472;2023-08-01T06:13:00;4.13;;;2.90;;
54235;SDS011;40151;43.606;1.472;2023-08-01T06:15:25;4.15;;;3.03;;
54235;SDS011;40151;43.606;1.472;2023-08-01T06:17:51;5.22;;;2.80;;
54235;SDS011;40151;43.606;1.472;2023-08-01T06:20:16;4.95;;;3.00;;
54235;SDS011;40151;43.606;1.472;2023-08-01T06:22:42;5.70;;;2.92;;
54235;SDS011;40151;43.606;1.472;2023-08-01T06:25:08;3.95;;;2.75;;
54235;SDS011;40151;43.606;1.472;2023-08-01T06:27:33;4.63;;;2.95;;
54235;SDS011;40151;43.606;1.472;2023-08-01T06:29:59;4.70;;;2.88;;
54235;SDS011;40151;43.606;1.472;2023-08-01T06:32:24;5.10;;;2.80;;
54235;SDS011;40151;43.606;1.472;2023-08-01T06:34:50;4.40;;;2.58;;
54235;SDS011;40151;43.606;1.472;2023-08-01T06:37:15;5.00;;;3.03;;
54235;SDS011;40151;43.606;1.472;2023-08-01T06:39:41;4.75;;;3.10;;
54235;SDS011;40151;43.606;1.472;2023-08-01T06:42:06;4.43;;;2.88;;
54235;SDS011;40151;43.606;1.472;2023-08-01T06:44:32;4.40;;;2.80;;
54235;SDS011;40151;43.606;1.472;2023-08-01T06:46:57;6.03;;;3.42;;
54235;SDS011;40151;43.606;1.472;2023-08-01T06:49:23;5.03;;;2.95;;
54235;SDS011;40151;43.606;1.472;2023-08-01T06:51:48;4.85;;;3.08;;
54235;SDS011;40151;43.606;1.472;2023-08-01T06:54:13;5.22;;;3.53;;
54235;SDS011;40151;43.606;1.472;2023-08-01T06:56:39;4.65;;;3.08;;
54235;SDS011;40151;43.606;1.472;2023-08-01T06:59:04;4.88;;;3.38;;
54235;SDS011;40151;43.606;1.472;2023-08-01T07:01:30;5.07;;;3.03;;
54235;SDS011;40151;43.606;1.472;2023-08-01T07:03:55;4.85;;;3.42;;
54235;SDS011;40151;43.606;1.472;2023-08-01T07:06:22;5.18;;;3.63;;
54235;SDS011;40151;43.606;1.472;2023-08-01T07:08:48;5.40;;;3.38;;
54235;SDS011;40151;43.606;1.472;2023-08-01T07:11:14;5.30;;;3.00;;
54235;SDS011;40151;43.606;1.472;2023-08-01T07:13:39;5.78;;;3.40;;
54235;SDS011;40151;43.606;1.472;2023-08-01T07:16:04;5.57;;;3.08;;
54235;SDS011;40151;43.606;1.472;2023-08-01T07:18:30;5.05;;;2.80;;
54235;SDS011;40151;43.606;1.472;2023-08-01T07:21:02;5.45;;;3.67;;
54235;SDS011;40151;43.606;1.472;2023-08-01T07:23:28;4.90;;;3.20;;
54235;SDS011;40151;43.606;1.472;2023-08-01T07:25:54;5.45;;;3.30;;
54235;SDS011;40151;43.606;1.472;2023-08-01T07:28:20;4.95;;;3.35;;
54235;SDS011;40151;43.606;1.472;2023-08-01T07:30:45;5.07;;;3.33;;
54235;SDS011;40151;43.606;1.472;2023-08-01T07:33:10;5.38;;;3.20;;
54235;SDS011;40151;43.606;1.472;2023-08-01T07:35:36;5.57;;;3.33;;
54235;SDS011;40151;43.606;1.472;2023-08-01T07:38:01;5.25;;;3.13;;
54235;SDS011;40151;43.606;1.472;2023-08-01T07:40:26;4.90;;;3.13;;
54235;SDS011;40151;43.606;1.472;2023-08-01T07:42:52;5.32;;;3.60;;
54235;SDS011;40151;43.606;1.472;2023-08-01T07:45:17;4.35;;;3.00;;
54235;SDS011;40151;43.606;1.472;2023-08-01T07:47:44;4.75;;;2.97;;
54235;SDS011;40151;43.606;1.472;2023-08-01T07:50:10;4.55;;;2.80;;
54235;SDS011;40151;43.606;1.472;2023-08-01T07:52:35;5.28;;;3.17;;
54235;SDS011;40151;43.606;1.472;2023-08-01T07:55:01;5.00;;;3.25;;
54235;SDS011;40151;43.606;1.472;2023-08-01T07:57:26;4.88;;;3.13;;
54235;SDS011;40151;43.606;1.472;2023-08-01T07:59:52;5.30;;;3.50;;
54235;SDS011;40151;43.606;1.472;2023-08-01T08:02:17;3.53;;;2.53;;
54235;SDS011;40151;43.606;1.472;2023-08-01T08:04:43;5.00;;;3.30;;
54235;SDS011;40151;43.606;1.472;2023-08-01T08:07:09;4.63;;;3.15;;
54235;SDS011;40151;43.606;1.472;2023-08-01T08:09:34;6.22;;;3.38;;
54235;SDS011;40151;43.606;1.472;2023-08-01T08:12:00;5.30;;;3.42;;
54235;SDS011;40151;43.606;1.472;2023-08-01T08:14:25;4.68;;;3.10;;
54235;SDS011;40151;43.606;1.472;2023-08-01T08:16:51;5.90;;;3.70;;
54235;SDS011;40151;43.606;1.472;2023-08-01T08:19:16;5.18;;;3.13;;
54235;SDS011;40151;43.606;1.472;2023-08-01T08:21:42;5.05;;;3.20;;
54235;SDS011;40151;43.606;1.472;2023-08-01T08:24:07;4.85;;;3.25;;
54235;SDS011;40151;43.606;1.472;2023-08-01T08:26:33;4.30;;;2.88;;
54235;SDS011;40151;43.606;1.472;2023-08-01T08:29:03;5.32;;;3.05;;
54235;SDS011;40151;43.606;1.472;2023-08-01T08:31:30;4.93;;;3.30;;
54235;SDS011;40151;43.606;1.472;2023-08-01T08:33:55;4.28;;;2.85;;
54235;SDS011;40151;43.606;1.472;2023-08-01T08:36:21;4.80;;;3.47;;
54235;SDS011;40151;43.606;1.472;2023-08-01T08:38:46;5.30;;;3.10;;
54235;SDS011;40151;43.606;1.472;2023-08-01T08:41:14;5.32;;;3.33;;
54235;SDS011;40151;43.606;1.472;2023-08-01T08:43:46;5.32;;;3.45;;
54235;SDS011;40151;43.606;1.472;2023-08-01T08:46:14;4.78;;;2.88;;
54235;SDS011;40151;43.606;1.472;2023-08-01T08:48:41;6.32;;;3.42;;
54235;SDS011;40151;43.606;1.472;2023-08-01T08:51:07;4.85;;;3.10;;
54235;SDS011;40151;43.606;1.472;2023-08-01T08:53:34;5.45;;;3.13;;
54235;SDS011;40151;43.606;1.472;2023-08-01T08:56:01;5.43;;;3.58;;
54235;SDS011;40151;43.606;1.472;2023-08-01T08:58:28;5.15;;;3.35;;
54235;SDS011;40151;43.606;1.472;2023-08-01T09:00:56;5.28;;;2.83;;
54235;SDS011;40151;43.606;1.472;2023-08-01T09:03:22;4.75;;;3.08;;
54235;SDS011;40151;43.606;1.472;2023-08-01T09:05:49;5.35;;;3.53;;
54235;SDS011;40151;43.606;1.472;2023-08-01T09:08:19;4.80;;;2.60;;
54235;SDS011;40151;43.606;1.472;2023-08-01T09:10:46;4.32;;;2.88;;
54235;SDS011;40151;43.606;1.472;2023-08-01T09:13:13;5.80;;;3.13;;
54235;SDS011;40151;43.606;1.472;2023-08-01T09:15:39;5.53;;;3.00;;
54235;SDS011;40151;43.606;1.472;2023-08-01T09:18:07;5.00;;;2.83;;
54235;SDS011;40151;43.606;1.472;2023-08-01T09:23:27;4.68;;;3.33;;
54235;SDS011;40151;43.606;1.472;2023-08-01T09:25:53;4.88;;;3.08;;
54235;SDS011;40151;43.606;1.472;2023-08-01T09:28:22;4.97;;;3.10;;
54235;SDS011;40151;43.606;1.472;2023-08-01T09:30:52;5.57;;;3.13;;
54235;SDS011;40151;43.606;1.472;2023-08-01T09:33:20;5.07;;;2.85;;
54235;SDS011;40151;43.606;1.472;2023-08-01T09:35:46;4.47;;;2.88;;
54235;SDS011;40151;43.606;1.472;2023-08-01T09:38:12;5.13;;;3.10;;
54235;SDS011;40151;43.606;1.472;2023-08-01T09:40:40;4.57;;;3.20;;
54235;SDS011;40151;43.606;1.472;2023-08-01T09:43:06;4.10;;;2.90;;
54235;SDS011;40151;43.606;1.472;2023-08-01T09:45:32;4.50;;;3.10;;
54235;SDS011;40151;43.606;1.472;2023-08-01T09:47:59;6.30;;;3.10;;
54235;SDS011;40151;43.606;1.472;2023-08-01T09:50:25;4.60;;;3.05;;
54235;SDS011;40151;43.606;1.472;2023-08-01T09:52:51;4.50;;;2.83;;
54235;SDS011;40151;43.606;1.472;2023-08-01T09:55:26;4.55;;;2.85;;
54235;SDS011;40151;43.606;1.472;2023-08-01T09:57:58;4.32;;;2.45;;
54235;SDS011;40151;43.606;1.472;2023-08-01T10:00:27;5.00;;;2.90;;
54235;SDS011;40151;43.606;1.472;2023-08-01T10:02:55;4.72;;;2.92;;
54235;SDS011;40151;43.606;1.472;2023-08-01T10:05:25;4.72;;;2.65;;
54235;SDS011;40151;43.606;1.472;2023-08-01T10:07:55;4.15;;;2.58;;
54235;SDS011;40151;43.606;1.472;2023-08-01T10:10:26;4.00;;;2.50;;
54235;SDS011;40151;43.606;1.472;2023-08-01T10:12:52;4.80;;;2.75;;
54235;SDS011;40151;43.606;1.472;2023-08-01T10:15:23;4.22;;;2.67;;
54235;SDS011;40151;43.606;1.472;2023-08-01T10:17:50;5.80;;;2.88;;
54235;SDS011;40151;43.606;1.472;2023-08-01T10:20:15;4.82;;;2.58;;
54235;SDS011;40151;43.606;1.472;2023-08-01T10:22:41;4.00;;;2.40;;
54235;SDS011;40151;43.606;1.472;2023-08-01T10:25:08;4.07;;;2.70;;
54235;SDS011;40151;43.606;1.472;2023-08-01T10:27:35;3.75;;;2.38;;
54235;SDS011;40151;43.606;1.472;2023-08-01T10:30:02;3.67;;;2.30;;
54235;SDS011;40151;43.606;1.472;2023-08-01T10:32:32;4.00;;;2.17;;
54235;SDS011;40151;43.606;1.472;2023-08-01T10:34:59;3.92;;;2.38;;
54235;SDS011;40151;43.606;1.472;2023-08-01T10:37:25;4.47;;;2.40;;
54235;SDS011;40151;43.606;1.472;2023-08-01T10:40:00;3.25;;;2.20;;
54235;SDS011;40151;43.606;1.472;2023-08-01T10:42:25;3.55;;;2.10;;
54235;SDS011;40151;43.606;1.472;2023-08-01T10:45:02;5.03;;;2.90;;
54235;SDS011;40151;43.606;1.472;2023-08-01T10:47:27;4.53;;;2.45;;
54235;SDS011;40151;43.606;1.472;2023-08-01T10:49:53;3.97;;;2.42;;
54235;SDS011;40151;43.606;1.472;2023-08-01T10:55:02;3.65;;;2.20;;
54235;SDS011;40151;43.606;1.472;2023-08-01T10:57:30;3.40;;;2.17;;
54235;SDS011;40151;43.606;1.472;2023-08-01T10:59:57;3.72;;;1.90;;
54235;SDS011;40151;43.606;1.472;2023-08-01T11:02:24;3.35;;;2.03;;
54235;SDS011;40151;43.606;1.472;2023-08-01T11:07:30;4.13;;;2.25;;
54235;SDS011;40151;43.606;1.472;2023-08-01T11:10:06;3.55;;;2.15;;
54235;SDS011;40151;43.606;1.472;2023-08-01T11:12:34;3.75;;;2.15;;
54235;SDS011;40151;43.606;1.472;2023-08-01T11:15:01;4.68;;;2.20;;
54235;SDS011;40151;43.606;1.472;2023-08-01T11:17:28;3.40;;;1.90;;
54235;SDS011;40151;43.606;1.472;2023-08-01T11:20:00;2.90;;;1.58;;
54235;SDS011;40151;43.606;1.472;2023-08-01T11:22:26;3.55;;;2.30;;
54235;SDS011;40151;43.606;1.472;2023-08-01T11:24:51;5.03;;;2.42;;
54235;SDS011;40151;43.606;1.472;2023-08-01T11:27:17;3.70;;;2.10;;
54235;SDS011;40151;43.606;1.472;2023-08-01T11:29:43;3.83;;;2.13;;
54235;SDS011;40151;43.606;1.472;2023-08-01T11:32:08;3.42;;;1.80;;
54235;SDS011;40151;43.606;1.472;2023-08-01T11:34:40;3.33;;;1.90;;
54235;SDS011;40151;43.606;1.472;2023-08-01T11:37:09;3.47;;;2.05;;
54235;SDS011;40151;43.606;1.472;2023-08-01T11:39:37;3.83;;;2.08;;
54235;SDS011;40151;43.606;1.472;2023-08-01T11:42:04;3.13;;;1.80;;
54235;SDS011;40151;43.606;1.472;2023-08-01T11:44:30;4.47;;;2.05;;
54235;SDS011;40151;43.606;1.472;2023-08-01T11:46:55;4.00;;;1.80;;
54235;SDS011;40151;43.606;1.472;2023-08-01T11:49:21;3.55;;;1.88;;
54235;SDS011;40151;43.606;1.472;2023-08-01T11:51:47;3.20;;;1.80;;
54235;SDS011;40151;43.606;1.472;2023-08-01T11:54:13;2.80;;;1.60;;
54235;SDS011;40151;43.606;1.472;2023-08-01T11:56:40;3.20;;;1.77;;
54235;SDS011;40151;43.606;1.472;2023-08-01T11:59:10;2.83;;;1.65;;
54235;SDS011;40151;43.606;1.472;2023-08-01T12:01:40;3.47;;;1.95;;
54235;SDS011;40151;43.606;1.472;2023-08-01T12:04:07;2.83;;;1.42;;
54235;SDS011;40151;43.606;1.472;2023-08-01T12:06:33;2.70;;;1.60;;
54235;SDS011;40151;43.606;1.472;2023-08-01T12:09:12;3.63;;;1.77;;
54235;SDS011;40151;43.606;1.472;2023-08-01T12:11:38;4.25;;;2.25;;
54235;SDS011;40151;43.606;1.472;2023-08-01T12:14:23;4.15;;;1.80;;
54235;SDS011;40151;43.606;1.472;2023-08-01T12:16:49;3.38;;;1.60;;
54235;SDS011;40151;43.606;1.472;2023-08-01T12:19:17;3.92;;;1.65;;
54235;SDS011;40151;43.606;1.472;2023-08-01T12:21:44;2.83;;;1.60;;
54235;SDS011;40151;43.606;1.472;2023-08-01T12:24:10;3.03;;;1.55;;
54235;SDS011;40151;43.606;1.472;2023-08-01T12:26:36;3.05;;;1.40;;
54235;SDS011;40151;43.606;1.472;2023-08-01T12:29:01;3.00;;;1.55;;
54235;SDS011;40151;43.606;1.472;2023-08-01T12:31:28;3.15;;;1.58;;
54235;SDS011;40151;43.606;1.472;2023-08-01T12:33:53;3.45;;;1.58;;
54235;SDS011;40151;43.606;1.472;2023-08-01T12:36:19;3.42;;;1.52;;
54235;SDS011;40151;43.606;1.472;2023-08-01T12:38:45;3.30;;;1.55;;
54235;SDS011;40151;43.606;1.472;2023-08-01T12:41:10;3.63;;;1.63;;
54235;SDS011;40151;43.606;1.472;2023-08-01T12:43:36;2.85;;;1.60;;
54235;SDS011;40151;43.606;1.472;2023-08-01T12:46:01;3.72;;;1.30;;
54235;SDS011;40151;43.606;1.472;2023-08-01T12:48:27;2.75;;;1.55;;
54235;SDS011;40151;43.606;1.472;2023-08-01T12:50:53;3.22;;;1.60;;
54235;SDS011;40151;43.606;1.472;2023-08-01T12:53:19;3.05;;;1.40;;
54235;SDS011;40151;43.606;1.472;2023-08-01T12:55:46;3.83;;;1.40;;
54235;SDS011;40151;43.606;1.472;2023-08-01T12:58:12;2.60;;;1.42;;
54235;SDS011;40151;43.606;1.472;2023-08-01T13:00:41;3.15;;;1.60;;
54235;SDS011;40151;43.606;1.472;2023-08-01T13:03:08;2.92;;;1.40;;
54235;SDS011;40151;43.606;1.472;2023-08-01T13:05:34;2.35;;;1.50;;
54235;SDS011;40151;43.606;1.472;2023-08-01T13:08:00;2.63;;;1.38;;
54235;SDS011;40151;43.606;1.472;2023-08-01T13:10:29;2.70;;;1.50;;
54235;SDS011;40151;43.606;1.472;2023-08-01T13:12:58;2.70;;;1.30;;
54235;SDS011;40151;43.606;1.472;2023-08-01T13:15:24;2.60;;;1.20;;
54235;SDS011;40151;43.606;1.472;2023-08-01T13:17:50;3.10;;;1.27;;
54235;SDS011;40151;43.606;1.472;2023-08-01T13:20:16;3.35;;;1.40;;
54235;SDS011;40151;43.606;1.472;2023-08-01T13:22:42;2.25;;;1.20;;
54235;SDS011;40151;43.606;1.472;2023-08-01T13:25:07;2.20;;;1.40;;
54235;SDS011;40151;43.606;1.472;2023-08-01T13:27:36;3.00;;;1.40;;
54235;SDS011;40151;43.606;1.472;2023-08-01T13:30:02;2.95;;;1.30;;
54235;SDS011;40151;43.606;1.472;2023-08-01T13:32:28;2.30;;;1.20;;
54235;SDS011;40151;43.606;1.472;2023-08-01T13:34:53;1.85;;;1.10;;
54235;SDS011;40151;43.606;1.472;2023-08-01T13:37:19;2.35;;;1.30;;
54235;SDS011;40151;43.606;1.472;2023-08-01T13:39:44;2.08;;;1.15;;
54235;SDS011;40151;43.606;1.472;2023-08-01T13:42:11;2.65;;;1.15;;
54235;SDS011;40151;43.606;1.472;2023-08-01T13:44:37;1.58;;;1.00;;
54235;SDS011;40151;43.606;1.472;2023-08-01T13:47:02;2.17;;;1.30;;
54235;SDS011;40151;43.606;1.472;2023-08-01T13:49:28;2.30;;;1.15;;
54235;SDS011;40151;43.606;1.472;2023-08-01T13:51:54;1.65;;;0.98;;
54235;SDS011;40151;43.606;1.472;2023-08-01T13:54:19;1.60;;;1.10;;
54235;SDS011;40151;43.606;1.472;2023-08-01T13:56:45;1.60;;;1.00;;
54235;SDS011;40151;43.606;1.472;2023-08-01T13:59:10;2.17;;;1.05;;
54235;SDS011;40151;43.606;1.472;2023-08-01T14:01:36;2.22;;;0.90;;
54235;SDS011;40151;43.606;1.472;2023-08-01T14:04:04;1.80;;;0.90;;
54235;SDS011;40151;43.606;1.472;2023-08-01T14:06:30;1.35;;;0.82;;
54235;SDS011;40151;43.606;1.472;2023-08-01T14:08:55;2.15;;;1.00;;
54235;SDS011;40151;43.606;1.472;2023-08-01T14:11:21;1.92;;;1.00;;
54235;SDS011;40151;43.606;1.472;2023-08-01T14:13:46;2.63;;;1.08;;
54235;SDS011;40151;43.606;1.472;2023-08-01T14:16:11;1.80;;;0.80;;
54235;SDS011;40151;43.606;1.472;2023-08-01T14:18:37;1.58;;;0.85;;
54235;SDS011;40151;43.606;1.472;2023-08-01T14:21:02;2.35;;;1.05;;
54235;SDS011;40151;43.606;1.472;2023-08-01T14:23:28;1.95;;;0.90;;
54235;SDS011;40151;43.606;1.472;2023-08-01T14:25:53;1.98;;;0.90;;
54235;SDS011;40151;43.606;1.472;2023-08-01T14:28:19;2.00;;;1.00;;
54235;SDS011;40151;43.606;1.472;2023-08-01T14:30:44;1.67;;;0.93;;
54235;SDS011;40151;43.606;1.472;2023-08-01T14:33:09;1.63;;;0.93;;
54235;SDS011;40151;43.606;1.472;2023-08-01T14:35:35;2.88;;;0.82;;
54235;SDS011;40151;43.606;1.472;2023-08-01T14:38:01;1.77;;;1.00;;
54235;SDS011;40151;43.606;1.472;2023-08-01T14:40:28;1.65;;;0.82;;
54235;SDS011;40151;43.606;1.472;2023-08-01T14:42:54;1.02;;;0.60;;
54235;SDS011;40151;43.606;1.472;2023-08-01T14:45:19;2.75;;;1.00;;
54235;SDS011;40151;43.606;1.472;2023-08-01T14:47:44;1.38;;;0.80;;
54235;SDS011;40151;43.606;1.472;2023-08-01T14:50:10;1.67;;;0.95;;